Time;durP1;ratioP1;P1;durP2;ratioP2;P2;SDS_P1;SDS_P2;PMS_P1;PMS_P2;Temp;Humidity;BMP_temperature;BMP_pressure;BME280_temperature;BME280_humidity;BME280_pressure;Samples;Min_cycle;Max_cycle;Signal;HPM_P1;HPM_P2
2022/07/11 00:00:00;;;;;;;2.10;1.40;;;;;;;15.02;100.00;102464.63;5015057;28;20545;-76
2022/07/11 00:02:26;;;;;;;1.67;1.03;;;;;;;15.18;100.00;102485.19;5015774;28;20268;-77
2022/07/11 00:04:51;;;;;;;2.40;1.40;;;;;;;15.23;100.00;102463.84;5019694;28;27875;-76
2022/07/11 00:07:17;;;;;;;1.10;1.00;;;;;;;15.27;100.00;102481.34;5018380;28;20526;-76
2022/07/11 00:09:43;;;;;;;1.83;1.50;;;;;;;15.20;100.00;102466.91;5016911;28;20192;-77
2022/07/11 00:12:09;;;;;;;1.60;1.27;;;;;;;15.11;100.00;102449.97;5017227;28;20196;-77
2022/07/11 00:14:35;;;;;;;1.67;1.10;;;;;;;14.92;100.00;102424.38;5019454;28;20208;-77
2022/07/11 00:17:01;;;;;;;1.30;1.20;;;;;;;15.17;100.00;102473.53;5016998;28;20779;-77
2022/07/11 00:19:26;;;;;;;1.20;1.10;;;;;;;14.66;100.00;102378.97;5017688;28;20464;-77
2022/07/11 00:21:52;;;;;;;3.50;1.57;;;;;;;15.26;100.00;102487.78;5019310;28;20605;-76
2022/07/11 00:24:19;;;;;;;2.80;1.40;;;;;;;15.31;100.00;102488.88;5015881;28;20212;-77
2022/07/11 00:26:46;;;;;;;2.20;1.37;;;;;;;15.23;100.00;102472.78;5018167;28;20467;-76
2022/07/11 00:29:12;;;;;;;2.80;1.40;;;;;;;15.40;100.00;102508.53;5017905;28;20450;-77
2022/07/11 00:31:37;;;;;;;1.83;1.20;;;;;;;15.04;100.00;102441.81;5019764;28;20835;-77
2022/07/11 00:34:03;;;;;;;4.50;1.63;;;;;;;14.43;100.00;102368.25;5021473;28;20208;-77
2022/07/11 00:36:28;;;;;;;1.20;1.10;;;;;;;15.22;100.00;102505.41;5019692;28;20199;-77
2022/07/11 00:38:54;;;;;;;1.57;1.33;;;;;;;14.35;100.00;102363.78;5014417;28;20203;-77
2022/07/11 00:41:19;;;;;;;2.10;1.50;;;;;;;15.22;100.00;102492.75;5018706;28;20599;-77
2022/07/11 00:43:53;;;;;;;2.30;1.20;;;;;;;14.53;100.00;102381.50;5019855;28;20573;-78
2022/07/11 00:46:19;;;;;;;5.90;1.30;;;;;;;15.01;100.00;102492.66;5018406;28;20172;-78
2022/07/11 00:48:44;;;;;;;1.20;1.10;;;;;;;14.36;100.00;102373.56;5016245;28;20457;-76
2022/07/11 00:51:10;;;;;;;1.00;0.90;;;;;;;15.13;100.00;102486.59;5015684;28;20466;-76
2022/07/11 00:53:36;;;;;;;1.90;0.90;;;;;;;14.04;100.00;102310.00;5018064;28;21151;-76
2022/07/11 00:56:02;;;;;;;2.17;1.23;;;;;;;14.31;100.00;102378.66;5018666;28;20648;-76
2022/07/11 00:58:28;;;;;;;1.33;0.90;;;;;;;14.17;100.00;102353.34;5016935;28;20258;-77
2022/07/11 01:00:53;;;;;;;3.13;1.13;;;;;;;14.35;100.00;102377.28;5016674;28;21027;-77
2022/07/11 01:03:19;;;;;;;1.47;0.80;;;;;;;13.96;100.00;102305.53;5019499;28;20183;-77
2022/07/11 01:05:44;;;;;;;1.37;0.80;;;;;;;14.91;100.00;102485.69;5015864;28;20250;-76
2022/07/11 01:08:10;;;;;;;2.63;1.10;;;;;;;14.38;100.00;102381.47;5012871;28;20225;-78
2022/07/11 01:10:35;;;;;;;1.67;0.83;;;;;;;15.11;100.00;102494.06;5014613;28;20297;-76
2022/07/11 01:13:01;;;;;;;1.17;0.93;;;;;;;14.95;100.00;102483.44;5015212;28;20197;-76
2022/07/11 01:15:26;;;;;;;2.40;1.20;;;;;;;13.86;100.00;102298.75;5016347;28;20216;-76
2022/07/11 01:17:52;;;;;;;1.90;0.90;;;;;;;14.49;100.00;102394.47;5010579;28;20193;-76
2022/07/11 01:20:22;;;;;;;2.60;0.83;;;;;;;14.95;100.00;102467.22;5017645;28;20194;-76
2022/07/11 01:22:52;;;;;;;2.20;1.07;;;;;;;14.91;100.00;102447.84;5017776;28;20188;-76
2022/07/11 01:25:30;;;;;;;1.90;0.93;;;;;;;15.08;100.00;102485.50;5015803;28;20456;-77
2022/07/11 01:28:04;;;;;;;1.90;0.90;;;;;;;15.04;100.00;102484.16;5015862;28;20457;-76
2022/07/11 01:30:34;;;;;;;1.17;0.70;;;;;;;14.58;100.00;102404.22;5015493;28;20431;-77
2022/07/11 01:32:59;;;;;;;2.23;1.00;;;;;;;14.96;100.00;102449.16;5015369;28;20478;-77
2022/07/11 01:35:27;;;;;;;1.50;1.00;;;;;;;15.08;100.00;102474.69;5015265;28;20471;-77
2022/07/11 01:37:53;;;;;;;1.67;1.20;;;;;;;13.88;100.00;102312.88;5015836;28;20330;-76
2022/07/11 01:40:19;;;;;;;3.47;1.43;;;;;;;13.27;100.00;102202.44;5014544;28;20526;-76
2022/07/11 01:42:45;;;;;;;1.50;1.10;;;;;;;14.99;100.00;102487.47;5017217;28;20185;-77
2022/07/11 01:45:11;;;;;;;1.23;1.13;;;;;;;14.48;100.00;102373.91;5013145;28;20474;-76
2022/07/11 01:47:37;;;;;;;1.13;1.00;;;;;;;15.11;100.00;102491.34;5016451;28;20448;-76
2022/07/11 01:50:03;;;;;;;2.27;1.57;;;;;;;15.19;100.00;102481.44;5013881;28;20266;-77
2022/07/11 01:52:29;;;;;;;3.47;1.73;;;;;;;14.27;100.00;102360.34;5016139;28;20850;-77
2022/07/11 01:54:54;;;;;;;3.03;1.57;;;;;;;14.45;100.00;102382.41;5013353;28;20458;-76
2022/07/11 01:57:20;;;;;;;2.80;1.50;;;;;;;14.19;100.00;102347.78;5015984;28;20216;-76
2022/07/11 01:59:46;;;;;;;1.90;1.53;;;;;;;14.14;100.00;102345.63;5012785;28;20544;-76
2022/07/11 02:02:12;;;;;;;2.10;1.60;;;;;;;14.57;100.00;102415.19;5015248;28;20184;-75
2022/07/11 02:04:37;;;;;;;3.40;1.70;;;;;;;14.95;100.00;102480.72;5014225;28;20466;-75
2022/07/11 02:07:03;;;;;;;2.03;1.67;;;;;;;14.27;100.00;102365.75;5017524;28;20204;-75
2022/07/11 02:09:28;;;;;;;2.23;1.43;;;;;;;15.06;100.00;102482.13;5015761;28;20189;-75
2022/07/11 02:11:53;;;;;;;1.50;1.40;;;;;;;14.88;100.00;102463.63;5014050;28;20274;-75
2022/07/11 02:14:19;;;;;;;1.30;1.20;;;;;;;14.81;100.00;102454.56;5014849;28;20867;-75
2022/07/11 02:16:44;;;;;;;2.27;1.23;;;;;;;14.59;100.00;102407.75;5016310;28;20184;-75
2022/07/11 02:19:10;;;;;;;1.40;1.30;;;;;;;14.24;100.00;102342.66;5015754;28;20731;-75
2022/07/11 02:21:36;;;;;;;2.70;1.63;;;;;;;14.66;100.00;102419.47;5014829;28;20188;-74
2022/07/11 02:24:01;;;;;;;1.53;1.13;;;;;;;14.52;100.00;102374.41;5017942;28;20534;-74
2022/07/11 02:26:27;;;;;;;1.37;1.00;;;;;;;15.17;100.00;102487.06;5008800;28;20195;-74
2022/07/11 02:28:52;;;;;;;3.50;1.40;;;;;;;14.77;100.00;102434.38;5014810;28;20196;-75
2022/07/11 02:31:18;;;;;;;1.30;1.00;;;;;;;15.21;100.00;102493.75;5015280;28;20212;-74
2022/07/11 02:33:43;;;;;;;2.13;1.40;;;;;;;15.13;100.00;102494.72;5015794;28;20275;-74
2022/07/11 02:36:10;;;;;;;1.70;1.30;;;;;;;15.14;100.00;102498.25;5016226;28;20609;-75
2022/07/11 02:38:35;;;;;;;4.40;1.10;;;;;;;14.57;100.00;102424.13;5016029;28;20627;-74
2022/07/11 02:41:01;;;;;;;2.47;1.57;;;;;;;15.00;100.00;102474.78;5012818;28;21190;-74
2022/07/11 02:43:27;;;;;;;2.57;1.20;;;;;;;14.16;100.00;102351.69;5012592;28;20664;-74
2022/07/11 02:45:53;;;;;;;1.67;1.00;;;;;;;15.10;100.00;102491.53;5013803;28;20203;-74
2022/07/11 02:48:19;;;;;;;3.70;1.97;;;;;;;15.19;100.00;102503.94;5017726;28;20451;-74
2022/07/11 02:50:44;;;;;;;2.50;1.30;;;;;;;15.08;100.00;102502.53;5015252;28;20239;-74
2022/07/11 02:53:09;;;;;;;1.47;0.93;;;;;;;15.11;100.00;102499.44;5010774;28;20312;-75
2022/07/11 02:55:35;;;;;;;2.53;2.13;;;;;;;14.81;100.00;102447.31;5015690;28;20212;-74
2022/07/11 02:58:00;;;;;;;2.13;1.73;;;;;;;14.62;100.00;102415.47;5015621;28;20216;-74
2022/07/11 03:00:27;;;;;;;2.30;1.47;;;;;;;15.10;100.00;102496.94;5017952;28;20203;-75
2022/07/11 03:02:52;;;;;;;2.70;1.30;;;;;;;14.77;100.00;102443.31;5018751;28;20724;-74
2022/07/11 03:05:18;;;;;;;1.80;1.50;;;;;;;15.11;100.00;102495.91;5020308;28;20546;-75
2022/07/11 03:07:43;;;;;;;2.03;1.50;;;;;;;15.09;100.00;102492.56;5027796;28;20192;-74
2022/07/11 03:10:09;;;;;;;2.70;1.30;;;;;;;14.50;100.00;102409.69;5018110;28;20192;-74
2022/07/11 03:12:35;;;;;;;1.37;1.27;;;;;;;15.07;100.00;102489.19;5018619;28;20200;-74
2022/07/11 03:15:00;;;;;;;1.33;1.23;;;;;;;14.47;100.00;102381.19;5023158;28;20227;-74
2022/07/11 03:17:26;;;;;;;1.40;1.20;;;;;;;15.23;100.00;102502.50;5018902;28;20924;-74
2022/07/11 03:19:51;;;;;;;2.17;1.47;;;;;;;15.21;100.00;102507.25;5018520;28;20208;-74
2022/07/11 03:22:17;;;;;;;2.20;1.07;;;;;;;14.84;100.00;102455.06;5018146;28;20192;-74
2022/07/11 03:24:42;;;;;;;2.83;1.40;;;;;;;15.12;100.00;102500.28;5019283;28;20212;-74
2022/07/11 03:27:09;;;;;;;1.57;1.20;;;;;;;14.97;100.00;102477.84;5020447;28;20200;-74
2022/07/11 03:29:34;;;;;;;5.60;1.60;;;;;;;14.73;100.00;102439.31;5021051;28;20845;-75
2022/07/11 03:32:00;;;;;;;3.70;1.10;;;;;;;15.11;100.00;102507.56;5021074;28;20482;-75
2022/07/11 03:34:25;;;;;;;1.00;0.90;;;;;;;14.41;100.00;102387.34;5022530;28;20208;-75
2022/07/11 03:36:51;;;;;;;1.73;0.80;;;;;;;15.17;100.00;102500.56;5020587;28;20195;-75
2022/07/11 03:39:16;;;;;;;1.53;1.00;;;;;;;15.10;100.00;102505.91;5022208;28;20650;-74
2022/07/11 03:41:42;;;;;;;1.97;1.50;;;;;;;14.73;100.00;102460.09;5021001;28;20192;-75
2022/07/11 03:44:08;;;;;;;1.30;1.07;;;;;;;15.13;100.00;102499.28;5022733;28;20555;-74
2022/07/11 03:46:34;;;;;;;1.03;0.93;;;;;;;14.59;100.00;102408.59;5020077;28;20707;-75
2022/07/11 03:48:59;;;;;;;1.20;1.10;;;;;;;14.70;100.00;102434.28;5015075;28;20451;-75
2022/07/11 03:51:24;;;;;;;3.73;1.53;;;;;;;14.83;100.00;102455.22;5019444;28;20227;-74
2022/07/11 03:53:50;;;;;;;2.93;1.13;;;;;;;15.14;100.00;102507.19;5021849;28;20295;-74
2022/07/11 03:56:18;;;;;;;1.30;1.10;;;;;;;15.23;100.00;102507.09;5020089;28;20215;-74
2022/07/11 03:58:43;;;;;;;1.60;1.30;;;;;;;15.18;100.00;102512.22;5020505;28;20223;-75
2022/07/11 04:01:09;;;;;;;2.63;1.10;;;;;;;15.02;100.00;102483.53;5014005;28;20445;-75
2022/07/11 04:03:34;;;;;;;1.77;0.90;;;;;;;14.62;100.00;102399.28;5016854;28;20543;-74
2022/07/11 04:06:00;;;;;;;2.03;1.13;;;;;;;15.30;100.00;102513.41;5024189;28;20248;-74
2022/07/11 04:08:25;;;;;;;1.57;1.27;;;;;;;15.33;100.00;102510.31;5017241;28;20189;-73
2022/07/11 04:10:50;;;;;;;1.50;1.10;;;;;;;15.30;100.00;102511.56;5014991;28;20645;-73
2022/07/11 04:13:16;;;;;;;2.30;1.17;;;;;;;14.82;100.00;102448.16;5022670;28;20185;-73
2022/07/11 04:15:42;;;;;;;2.50;1.33;;;;;;;15.08;100.00;102493.59;5019090;28;20219;-73
2022/07/11 04:18:07;;;;;;;2.30;1.43;;;;;;;15.14;100.00;102515.28;5020392;28;20689;-74
2022/07/11 04:20:32;;;;;;;3.70;1.37;;;;;;;15.21;100.00;102518.06;5018539;28;20180;-73
2022/07/11 04:22:58;;;;;;;1.87;1.43;;;;;;;15.08;100.00;102497.13;5021751;28;20604;-74
2022/07/11 04:25:24;;;;;;;2.33;1.30;;;;;;;14.89;100.00;102457.16;5019080;28;20204;-73
2022/07/11 04:27:49;;;;;;;1.70;1.03;;;;;;;15.20;100.00;102508.28;5021517;28;20204;-73
2022/07/11 04:30:14;;;;;;;5.50;1.10;;;;;;;15.25;100.00;102513.16;5019923;28;20196;-73
2022/07/11 04:32:40;;;;;;;2.80;1.00;;;;;;;15.28;100.00;102523.59;5020943;28;20248;-74
2022/07/11 04:35:06;;;;;;;1.73;0.80;;;;;;;15.37;100.00;102522.44;5023066;28;20212;-74
2022/07/11 04:37:31;;;;;;;1.10;0.90;;;;;;;14.94;100.00;102472.84;5023417;28;20649;-74
2022/07/11 04:39:57;;;;;;;1.23;0.80;;;;;;;15.21;100.00;102525.34;5016680;28;22299;-74
2022/07/11 04:42:22;;;;;;;1.50;0.70;;;;;;;15.25;100.00;102530.19;5015635;28;20189;-74
2022/07/11 04:44:48;;;;;;;0.80;0.70;;;;;;;14.96;100.00;102498.63;5015642;28;20626;-73
2022/07/11 04:47:13;;;;;;;1.10;0.63;;;;;;;15.19;100.00;102540.91;5017333;28;20188;-74
2022/07/11 04:49:39;;;;;;;0.87;0.67;;;;;;;15.00;100.00;102499.94;5013527;28;20189;-74
2022/07/11 04:52:05;;;;;;;0.80;0.70;;;;;;;14.65;100.00;102448.34;5016291;28;20215;-73
2022/07/11 04:54:30;;;;;;;0.70;0.60;;;;;;;14.96;100.00;102490.53;5017698;28;20211;-74
2022/07/11 04:56:56;;;;;;;0.77;0.70;;;;;;;15.21;100.00;102544.25;5017373;28;20524;-74
2022/07/11 04:59:23;;;;;;;0.70;0.60;;;;;;;14.62;100.00;102464.91;5015787;28;20192;-73
2022/07/11 05:01:50;;;;;;;1.27;0.70;;;;;;;14.21;100.00;102391.63;5013593;28;20681;-74
2022/07/11 05:04:15;;;;;;;1.20;0.60;;;;;;;14.53;100.00;102438.22;5014341;28;21031;-73
2022/07/11 05:06:41;;;;;;;0.63;0.60;;;;;;;14.50;100.00;102441.25;5018892;28;20454;-74
2022/07/11 05:09:07;;;;;;;1.10;0.60;;;;;;;15.25;100.00;102542.88;5013975;28;20199;-74
2022/07/11 05:11:34;;;;;;;1.17;0.60;;;;;;;15.28;100.00;102529.81;5018435;28;20258;-74
2022/07/11 05:13:59;;;;;;;0.95;0.70;;;;;;;15.35;100.00;102538.84;5014760;28;20463;-74
2022/07/11 05:16:24;;;;;;;1.00;0.70;;;;;;;14.96;100.00;102484.28;5014119;28;20440;-74
2022/07/11 05:18:50;;;;;;;0.90;0.60;;;;;;;14.83;100.00;102453.34;5013083;28;20409;-75
2022/07/11 05:21:21;;;;;;;1.63;0.70;;;;;;;15.37;100.00;102555.72;5019833;28;20188;-74
2022/07/11 05:23:47;;;;;;;1.00;0.70;;;;;;;15.01;100.00;102506.16;5017553;28;20811;-74
2022/07/11 05:26:14;;;;;;;1.10;0.70;;;;;;;14.91;100.00;102482.97;5017775;28;20514;-74
2022/07/11 05:28:40;;;;;;;0.70;0.60;;;;;;;15.34;100.00;102557.97;5016074;28;20220;-74
2022/07/11 05:31:05;;;;;;;0.77;0.60;;;;;;;15.07;100.00;102510.81;5015412;28;20507;-74
2022/07/11 05:33:31;;;;;;;2.50;0.63;;;;;;;15.15;100.00;102506.16;5014824;28;20540;-75
2022/07/11 05:35:56;;;;;;;1.73;0.80;;;;;;;15.23;100.00;102502.50;5010950;28;20188;-74
2022/07/11 05:38:22;;;;;;;0.80;0.63;;;;;;;15.07;100.00;102471.16;5015503;28;20292;-74
2022/07/11 05:40:47;;;;;;;0.70;0.60;;;;;;;15.33;100.00;102519.28;5014501;28;20189;-74
2022/07/11 05:43:13;;;;;;;1.10;0.60;;;;;;;15.36;100.00;102520.75;5015483;28;20299;-74
2022/07/11 05:45:38;;;;;;;0.60;0.47;;;;;;;15.59;100.00;102550.34;5014094;28;20223;-74
2022/07/11 05:48:04;;;;;;;1.70;0.60;;;;;;;14.65;100.00;102407.84;5016122;28;20207;-74
2022/07/11 05:50:29;;;;;;;0.93;0.50;;;;;;;15.47;100.00;102550.00;5014796;28;20228;-74
2022/07/11 05:52:57;;;;;;;0.60;0.50;;;;;;;15.49;100.00;102563.34;5014548;28;20239;-74
2022/07/11 05:55:23;;;;;;;0.50;0.40;;;;;;;15.37;100.00;102523.28;5014158;28;20203;-75
2022/07/11 05:57:48;;;;;;;0.90;0.50;;;;;;;14.84;100.00;102436.16;5015620;28;20837;-74
2022/07/11 06:00:14;;;;;;;0.70;0.50;;;;;;;15.29;100.00;102509.03;5026703;28;20447;-75
2022/07/11 06:02:40;;;;;;;0.57;0.53;;;;;;;15.27;100.00;102505.66;5015879;28;20189;-74
2022/07/11 06:05:05;;;;;;;0.90;0.60;;;;;;;15.15;100.00;102479.13;5016931;28;20463;-75
2022/07/11 06:10:15;;;;;;;1.00;0.53;;;;;;;15.51;100.00;102536.97;5014909;28;20199;-74
2022/07/11 06:12:41;;;;;;;1.00;0.50;;;;;;;15.47;100.00;102514.84;5012421;28;20475;-74
2022/07/11 06:15:07;;;;;;;0.70;0.43;;;;;;;15.66;100.00;102504.47;5013098;28;20730;-74
2022/07/11 06:17:32;;;;;;;0.73;0.60;;;;;;;15.88;100.00;102546.78;5018792;28;20450;-72
2022/07/11 06:19:59;;;;;;;1.53;0.50;;;;;;;15.45;100.00;102448.47;5016435;28;20366;-72
2022/07/11 06:22:24;;;;;;;1.37;0.60;;;;;;;15.83;100.00;102497.81;5015508;28;20509;-72
2022/07/11 06:24:50;;;;;;;0.50;0.40;;;;;;;15.88;100.00;102503.47;5016015;28;20212;-73
2022/07/11 06:27:15;;;;;;;1.80;0.60;;;;;;;16.22;100.00;102537.91;5016377;28;20196;-72
2022/07/11 06:29:40;;;;;;;1.07;0.60;;;;;;;15.37;100.00;102417.00;5015671;28;20495;-73
2022/07/11 06:32:06;;;;;;;0.60;0.50;;;;;;;15.92;100.00;102495.81;5019121;28;20209;-73
2022/07/11 06:34:32;;;;;;;0.77;0.60;;;;;;;16.16;100.00;102529.75;5016611;28;20219;-73
2022/07/11 06:36:57;;;;;;;0.77;0.57;;;;;;;15.93;100.00;102495.59;5018335;28;20458;-73
2022/07/11 06:39:22;;;;;;;0.60;0.50;;;;;;;15.81;100.00;102451.97;5026839;28;20672;-73
2022/07/11 06:41:49;;;;;;;0.83;0.60;;;;;;;16.22;100.00;102504.59;5012954;28;20185;-74
2022/07/11 06:44:14;;;;;;;1.00;0.50;;;;;;;15.68;100.00;102427.53;5016724;28;20688;-74
2022/07/11 06:46:40;;;;;;;0.67;0.50;;;;;;;16.17;100.00;102482.69;5020027;28;20442;-73
2022/07/11 06:49:06;;;;;;;1.83;0.50;;;;;;;15.93;100.00;102444.16;5016152;28;20193;-73
2022/07/11 06:51:32;;;;;;;1.43;0.50;;;;;;;16.42;100.00;102518.28;5018417;28;20204;-73
2022/07/11 06:53:57;;;;;;;1.33;0.60;;;;;;;16.37;100.00;102509.91;5017211;28;20482;-73
2022/07/11 06:56:23;;;;;;;1.13;0.60;;;;;;;16.40;100.00;102496.84;5016617;28;20271;-73
2022/07/11 06:58:48;;;;;;;0.60;0.50;;;;;;;16.50;100.00;102521.69;5016973;28;20555;-73
2022/07/11 07:01:13;;;;;;;0.70;0.50;;;;;;;15.23;100.00;102302.47;5021656;28;20172;-73
2022/07/11 07:03:39;;;;;;;0.83;0.53;;;;;;;16.64;100.00;102506.38;5015974;28;20540;-74
2022/07/11 07:06:05;;;;;;;0.80;0.50;;;;;;;16.15;100.00;102398.97;5017700;28;20668;-74
2022/07/11 07:08:31;;;;;;;0.63;0.50;;;;;;;16.30;100.00;102446.75;5016297;28;20275;-75
2022/07/11 07:10:57;;;;;;;0.60;0.50;;;;;;;16.01;100.00;102411.56;5017399;28;21045;-74
2022/07/11 07:13:28;;;;;;;0.60;0.40;;;;;;;16.48;100.00;102503.94;5022680;28;20223;-74
2022/07/11 07:15:54;;;;;;;0.60;0.50;;;;;;;15.69;100.00;102390.50;5014873;28;20435;-74
2022/07/11 07:18:20;;;;;;;0.60;0.50;;;;;;;16.40;100.00;102521.22;5014261;28;20453;-74
2022/07/11 07:20:45;;;;;;;0.53;0.50;;;;;;;16.28;100.00;102517.34;5012298;28;20543;-74
2022/07/11 07:23:11;;;;;;;0.90;0.60;;;;;;;16.34;100.00;102524.69;5014295;28;20216;-75
2022/07/11 07:25:37;;;;;;;0.70;0.50;;;;;;;15.55;100.00;102387.63;5012100;28;20208;-72
2022/07/11 07:28:03;;;;;;;1.43;0.60;;;;;;;16.64;100.00;102519.91;5017479;28;20279;-73
2022/07/11 07:30:29;;;;;;;0.83;0.70;;;;;;;16.34;100.00;102435.31;5018054;28;20451;-73
2022/07/11 07:32:54;;;;;;;0.83;0.53;;;;;;;16.93;100.00;102524.28;5020564;28;20482;-72
2022/07/11 07:35:20;;;;;;;0.70;0.50;;;;;;;16.84;100.00;102501.09;5020103;28;20577;-73
2022/07/11 07:37:45;;;;;;;0.60;0.50;;;;;;;16.96;100.00;102533.91;5018808;28;20196;-72
2022/07/11 07:40:10;;;;;;;0.80;0.60;;;;;;;16.31;100.00;102408.63;5012031;28;20184;-72
2022/07/11 07:42:36;;;;;;;0.60;0.50;;;;;;;17.22;100.00;102519.63;5016876;28;20180;-72
2022/07/11 07:45:01;;;;;;;1.47;0.50;;;;;;;17.10;100.00;102532.09;5019899;28;20302;-73
2022/07/11 07:47:28;;;;;;;0.50;0.43;;;;;;;16.23;100.00;102428.59;5023006;28;20748;-73
2022/07/11 07:49:53;;;;;;;0.80;0.60;;;;;;;16.72;100.00;102554.13;5023957;28;20181;-72
2022/07/11 07:52:19;;;;;;;1.00;0.53;;;;;;;16.75;100.00;102528.50;5018202;28;20470;-73
2022/07/11 07:54:44;;;;;;;0.77;0.50;;;;;;;16.45;100.00;102505.19;5019051;28;20208;-73
2022/07/11 07:57:10;;;;;;;0.80;0.50;;;;;;;15.25;100.00;102332.88;5019287;28;20189;-73
2022/07/11 07:59:35;;;;;;;0.87;0.60;;;;;;;16.15;100.00;102438.75;5019952;22;20268;-76
2022/07/11 08:02:01;;;;;;;1.13;0.57;;;;;;;16.52;100.00;102497.13;4999979;28;20639;-77
2022/07/11 08:04:26;;;;;;;1.20;0.70;;;;;;;16.28;100.00;102472.13;5001335;28;20272;-77
2022/07/11 08:06:52;;;;;;;0.57;0.53;;;;;;;16.43;100.00;102537.06;5001102;28;20871;-77
2022/07/11 08:09:17;;;;;;;0.77;0.60;;;;;;;16.45;100.00;102537.69;4994510;28;20212;-76
2022/07/11 08:11:42;;;;;;;0.77;0.50;;;;;;;16.48;100.00;102542.69;4996975;28;20216;-76
2022/07/11 08:14:08;;;;;;;0.97;0.57;;;;;;;16.12;100.00;102477.03;5000554;28;20196;-76
2022/07/11 08:16:34;;;;;;;0.80;0.60;;;;;;;16.02;100.00;102424.06;4980576;28;20752;-76
2022/07/11 08:19:01;;;;;;;1.67;0.70;;;;;;;16.84;100.00;102533.63;4984397;28;20209;-75
2022/07/11 08:21:27;;;;;;;0.87;0.50;;;;;;;16.90;100.00;102527.41;4998651;28;20189;-75
2022/07/11 08:23:54;;;;;;;3.67;0.70;;;;;;;16.23;100.00;102409.66;4998522;28;20534;-74
2022/07/11 08:26:20;;;;;;;0.60;0.50;;;;;;;16.55;100.00;102429.00;5001873;28;20467;-75
2022/07/11 08:28:46;;;;;;;1.17;0.70;;;;;;;17.15;100.00;102487.09;4996843;28;20472;-74
2022/07/11 08:31:11;;;;;;;1.23;0.53;;;;;;;16.87;100.00;102438.38;4984390;28;20537;-75
2022/07/11 08:33:37;;;;;;;2.90;0.70;;;;;;;17.12;100.00;102516.44;4998349;28;20192;-75
2022/07/11 08:36:03;;;;;;;1.07;0.60;;;;;;;17.06;100.00;102495.56;4998698;28;20232;-75
2022/07/11 08:38:28;;;;;;;0.70;0.60;;;;;;;16.46;100.00;102406.66;5000797;28;20527;-75
2022/07/11 08:40:53;;;;;;;1.13;0.50;;;;;;;17.22;100.00;102524.22;4998003;28;20237;-76
2022/07/11 08:43:27;;;;;;;0.83;0.40;;;;;;;17.35;100.00;102527.81;4999618;28;20197;-74
2022/07/11 08:45:54;;;;;;;0.80;0.50;;;;;;;17.29;100.00;102517.78;4997645;28;20537;-75
2022/07/11 08:48:21;;;;;;;2.40;0.60;;;;;;;16.41;100.00;102373.94;4997433;28;20470;-76
2022/07/11 08:50:47;;;;;;;1.60;0.50;;;;;;;17.42;100.00;102508.03;4997452;28;20491;-75
2022/07/11 08:53:12;;;;;;;0.70;0.60;;;;;;;15.76;100.00;102259.66;4993469;28;20547;-75
2022/07/11 08:55:38;;;;;;;0.70;0.50;;;;;;;17.10;100.00;102435.34;4997313;28;20928;-76
2022/07/11 08:58:06;;;;;;;2.00;0.60;;;;;;;16.39;100.00;102351.63;4997744;28;20186;-75
2022/07/11 09:00:31;;;;;;;0.60;0.50;;;;;;;17.12;100.00;102484.75;4997489;28;20728;-76
2022/07/11 09:02:58;;;;;;;2.13;0.60;;;;;;;16.82;100.00;102457.09;5001171;28;20436;-75
2022/07/11 09:05:23;;;;;;;0.70;0.50;;;;;;;16.98;100.00;102485.75;4986513;28;20214;-76
2022/07/11 09:07:49;;;;;;;0.90;0.70;;;;;;;16.88;100.00;102472.56;5003724;28;20428;-77
2022/07/11 09:10:16;;;;;;;0.70;0.60;;;;;;;17.19;100.00;102506.47;5001772;28;20737;-76
2022/07/11 09:13:05;;;;;;;1.13;0.70;;;;;;;17.29;100.00;102523.19;4995840;28;20562;-76
2022/07/11 09:15:42;;;;;;;1.00;0.60;;;;;;;16.97;100.00;102450.69;4984387;28;21019;-76
2022/07/11 09:18:28;;;;;;;0.60;0.50;;;;;;;17.44;100.00;102511.34;5001312;28;20442;-76
2022/07/11 09:26:34;;;;;;;0.60;0.50;;;;;;;16.96;100.00;102497.81;5002896;28;20450;-76
2022/07/11 09:29:03;;;;;;;0.70;0.70;;;;;;;16.78;100.00;102485.66;5000345;28;20496;-75
2022/07/11 09:31:30;;;;;;;1.77;0.60;;;;;;;16.98;100.00;102520.13;5002870;28;20467;-75
2022/07/11 09:34:08;;;;;;;0.90;0.60;;;;;;;16.98;100.00;102503.88;5001517;28;20944;-75
2022/07/11 09:36:45;;;;;;;0.90;0.70;;;;;;;17.16;100.00;102529.41;5002426;28;20507;-74
2022/07/11 09:39:19;;;;;;;1.80;0.60;;;;;;;17.39;100.00;102529.09;5001358;28;20534;-75
2022/07/11 09:41:46;;;;;;;1.10;0.43;;;;;;;16.99;100.00;102444.03;5001040;28;20472;-75
2022/07/11 09:44:17;;;;;;;1.63;0.60;;;;;;;17.58;100.00;102513.06;5002591;28;20852;-75
2022/07/11 09:46:46;;;;;;;2.30;0.60;;;;;;;17.75;100.00;102491.81;5002718;28;20868;-75
2022/07/11 09:49:12;;;;;;;4.93;0.53;;;;;;;18.04;100.00;102506.91;5000493;28;20475;-74
2022/07/11 09:51:39;;;;;;;0.60;0.50;;;;;;;17.62;100.00;102403.09;5001257;28;20543;-74
2022/07/11 09:54:06;;;;;;;0.60;0.50;;;;;;;17.67;100.00;102492.00;5001541;28;20433;-74
2022/07/11 09:56:42;;;;;;;1.47;0.80;;;;;;;17.67;100.00;102495.56;5002378;28;20515;-75
2022/07/11 09:59:10;;;;;;;0.50;0.43;;;;;;;17.62;100.00;102468.22;5001863;28;20452;-74
2022/07/11 10:01:37;;;;;;;0.57;0.43;;;;;;;17.43;100.00;102480.69;4999945;28;20972;-74
2022/07/11 10:04:05;;;;;;;0.57;0.40;;;;;;;16.81;100.00;102403.13;5001843;28;20431;-75
2022/07/11 10:06:31;;;;;;;0.87;0.50;;;;;;;16.91;100.00;102433.38;4999699;28;20429;-75
2022/07/11 10:08:56;;;;;;;0.60;0.50;;;;;;;17.26;100.00;102495.66;5000171;28;20819;-75
2022/07/11 10:11:22;;;;;;;1.20;0.60;;;;;;;16.73;100.00;102410.34;5000637;28;20584;-74
2022/07/11 10:13:48;;;;;;;0.90;0.50;;;;;;;17.11;100.00;102471.41;4984940;28;20228;-74
2022/07/11 10:16:21;;;;;;;0.97;0.60;;;;;;;17.09;100.00;102465.34;5001759;28;20185;-73
2022/07/11 10:18:53;;;;;;;0.70;0.60;;;;;;;17.40;100.00;102511.75;5000924;28;20181;-75
2022/07/11 10:21:39;;;;;;;1.33;0.60;;;;;;;17.41;100.00;102515.31;5002188;28;20420;-75
2022/07/11 10:24:44;;;;;;;0.77;0.50;;;;;;;17.66;100.00;102512.88;4991836;28;20436;-75
2022/07/11 10:27:18;;;;;;;0.63;0.50;;;;;;;18.07;100.00;102501.91;4987767;28;20961;-75
2022/07/11 10:29:52;;;;;;;0.77;0.50;;;;;;;17.81;100.00;102385.16;4998277;28;20450;-74
2022/07/11 10:32:19;;;;;;;0.90;0.67;;;;;;;18.55;100.00;102456.53;4995446;28;20995;-74
2022/07/11 10:34:46;;;;;;;0.80;0.47;;;;;;;18.59;100.00;102447.72;5001181;28;20697;-75
2022/07/11 10:37:13;;;;;;;1.50;0.60;;;;;;;18.18;100.00;102481.44;5000552;28;20431;-75
2022/07/11 10:39:46;;;;;;;0.73;0.50;;;;;;;17.94;100.00;102487.50;5000342;28;20503;-75
2022/07/11 10:42:20;;;;;;;0.50;0.50;;;;;;;17.36;100.00;102425.59;5001211;28;20420;-74
2022/07/11 10:44:52;;;;;;;0.70;0.50;;;;;;;17.62;100.00;102498.06;5000094;28;21015;-74
2022/07/11 10:47:35;;;;;;;0.70;0.50;;;;;;;17.58;100.00;102503.03;5000444;28;20492;-74
2022/07/11 10:50:07;;;;;;;1.27;0.40;;;;;;;16.93;100.00;102398.78;4998826;28;20448;-75
2022/07/11 10:52:36;;;;;;;1.33;0.60;;;;;;;17.35;100.00;102499.84;4999813;28;20562;-76
2022/07/11 10:55:22;;;;;;;0.67;0.40;;;;;;;17.53;100.00;102523.69;5001541;28;20419;-75
2022/07/11 10:57:57;;;;;;;0.90;0.50;;;;;;;17.50;100.00;102526.81;4999839;28;20487;-74
2022/07/11 11:00:23;;;;;;;2.20;0.50;;;;;;;17.11;100.00;102431.56;5001914;28;20459;-74
2022/07/11 11:03:01;;;;;;;1.47;0.50;;;;;;;17.82;100.00;102522.56;4999866;28;20928;-74
2022/07/11 11:05:55;;;;;;;0.60;0.40;;;;;;;17.81;100.00;102500.00;5000323;28;20511;-74
2022/07/11 11:08:36;;;;;;;0.93;0.60;;;;;;;17.95;100.00;102524.44;4987838;28;20441;-75
2022/07/11 11:11:02;;;;;;;1.53;0.50;;;;;;;17.86;100.00;102523.81;4999147;28;21031;-74
2022/07/11 11:13:29;;;;;;;1.20;0.50;;;;;;;17.88;100.00;102518.16;5000120;28;20420;-74
2022/07/11 11:15:57;;;;;;;1.60;0.60;;;;;;;17.76;100.00;102485.34;4984621;28;20471;-74
2022/07/11 11:18:25;;;;;;;0.87;0.50;;;;;;;18.09;100.00;102512.56;5000796;28;20424;-75
2022/07/11 11:21:02;;;;;;;0.77;0.50;;;;;;;18.27;100.00;102520.91;5003505;28;20726;-75
2022/07/11 11:23:29;;;;;;;0.90;0.50;;;;;;;18.15;100.00;102467.44;5004279;28;20451;-74